sensor_id;sensor_type;location;lat;lon;timestamp;P1;durP1;ratioP1;P2;durP2;ratioP2
63201;SDS011;49296;48.188;11.566;2023-03-01T00:00:00;34.90;;;16.15;;
63201;SDS011;49296;48.188;11.566;2023-03-01T00:02:28;31.50;;;15.98;;
63201;SDS011;49296;48.188;11.566;2023-03-01T00:04:56;32.63;;;16.20;;
63201;SDS011;49296;48.188;11.566;2023-03-01T00:07:23;31.70;;;15.93;;
63201;SDS011;49296;48.188;11.566;2023-03-01T00:09:50;25.20;;;14.63;;
63201;SDS011;49296;48.188;11.566;2023-03-01T00:12:16;30.42;;;15.85;;
63201;SDS011;49296;48.188;11.566;2023-03-01T00:14:43;32.55;;;15.95;;
63201;SDS011;49296;48.188;11.566;2023-03-01T00:17:10;31.15;;;15.70;;
63201;SDS011;49296;48.188;11.566;2023-03-01T00:19:37;32.83;;;16.52;;
63201;SDS011;49296;48.188;11.566;2023-03-01T00:22:05;32.28;;;15.85;;
63201;SDS011;49296;48.188;11.566;2023-03-01T00:24:32;28.85;;;15.68;;
63201;SDS011;49296;48.188;11.566;2023-03-01T00:26:58;33.35;;;16.10;;
63201;SDS011;49296;48.188;11.566;2023-03-01T00:29:25;28.98;;;15.00;;
63201;SDS011;49296;48.188;11.566;2023-03-01T00:31:52;32.60;;;15.80;;
63201;SDS011;49296;48.188;11.566;2023-03-01T00:34:18;30.02;;;16.20;;
63201;SDS011;49296;48.188;11.566;2023-03-01T00:36:45;27.98;;;14.77;;
63201;SDS011;49296;48.188;11.566;2023-03-01T00:39:14;29.65;;;15.85;;
63201;SDS011;49296;48.188;11.566;2023-03-01T00:41:41;27.02;;;15.13;;
63201;SDS011;49296;48.188;11.566;2023-03-01T00:44:09;30.35;;;15.50;;
63201;SDS011;49296;48.188;11.566;2023-03-01T00:46:36;28.35;;;15.00;;
63201;SDS011;49296;48.188;11.566;2023-03-01T00:49:03;30.88;;;15.80;;
63201;SDS011;49296;48.188;11.566;2023-03-01T00:51:30;29.08;;;15.40;;
63201;SDS011;49296;48.188;11.566;2023-03-01T00:53:58;28.27;;;15.50;;
63201;SDS011;49296;48.188;11.566;2023-03-01T00:56:28;29.23;;;15.50;;
63201;SDS011;49296;48.188;11.566;2023-03-01T00:58:55;26.73;;;15.27;;
63201;SDS011;49296;48.188;11.566;2023-03-01T01:01:23;28.40;;;15.68;;
63201;SDS011;49296;48.188;11.566;2023-03-01T01:03:53;31.65;;;16.17;;
63201;SDS011;49296;48.188;11.566;2023-03-01T01:06:21;32.08;;;16.05;;
63201;SDS011;49296;48.188;11.566;2023-03-01T01:08:49;30.65;;;17.42;;
63201;SDS011;49296;48.188;11.566;2023-03-01T01:11:17;27.10;;;15.10;;
63201;SDS011;49296;48.188;11.566;2023-03-01T01:13:46;28.52;;;15.90;;
63201;SDS011;49296;48.188;11.566;2023-03-01T01:16:14;32.28;;;16.13;;
63201;SDS011;49296;48.188;11.566;2023-03-01T01:18:42;30.75;;;16.38;;
63201;SDS011;49296;48.188;11.566;2023-03-01T01:21:10;29.02;;;15.80;;
63201;SDS011;49296;48.188;11.566;2023-03-01T01:23:37;27.65;;;14.45;;
63201;SDS011;49296;48.188;11.566;2023-03-01T01:26:05;29.38;;;15.88;;
63201;SDS011;49296;48.188;11.566;2023-03-01T01:28:33;32.60;;;16.08;;
63201;SDS011;49296;48.188;11.566;2023-03-01T01:31:01;29.77;;;15.40;;
63201;SDS011;49296;48.188;11.566;2023-03-01T01:33:28;28.08;;;15.38;;
63201;SDS011;49296;48.188;11.566;2023-03-01T01:35:54;28.65;;;15.27;;
63201;SDS011;49296;48.188;11.566;2023-03-01T01:38:21;31.88;;;17.00;;
63201;SDS011;49296;48.188;11.566;2023-03-01T01:40:48;28.75;;;15.32;;
63201;SDS011;49296;48.188;11.566;2023-03-01T01:43:21;28.92;;;15.35;;
63201;SDS011;49296;48.188;11.566;2023-03-01T01:45:49;33.17;;;16.00;;
63201;SDS011;49296;48.188;11.566;2023-03-01T01:48:18;33.08;;;15.82;;
63201;SDS011;49296;48.188;11.566;2023-03-01T01:50:49;30.42;;;16.48;;
63201;SDS011;49296;48.188;11.566;2023-03-01T01:53:21;35.83;;;16.30;;
63201;SDS011;49296;48.188;11.566;2023-03-01T01:55:49;29.35;;;15.82;;
63201;SDS011;49296;48.188;11.566;2023-03-01T02:00:47;30.02;;;15.45;;
63201;SDS011;49296;48.188;11.566;2023-03-01T02:03:17;31.10;;;16.00;;
63201;SDS011;49296;48.188;11.566;2023-03-01T02:05:50;25.92;;;14.25;;
63201;SDS011;49296;48.188;11.566;2023-03-01T02:08:22;33.35;;;15.25;;
63201;SDS011;49296;48.188;11.566;2023-03-01T02:10:52;32.20;;;15.73;;
63201;SDS011;49296;48.188;11.566;2023-03-01T02:13:20;30.92;;;15.75;;
63201;SDS011;49296;48.188;11.566;2023-03-01T02:15:48;28.33;;;14.82;;
63201;SDS011;49296;48.188;11.566;2023-03-01T02:18:16;29.08;;;16.40;;
63201;SDS011;49296;48.188;11.566;2023-03-01T02:20:50;31.33;;;15.93;;
63201;SDS011;49296;48.188;11.566;2023-03-01T02:23:29;29.63;;;14.77;;
63201;SDS011;49296;48.188;11.566;2023-03-01T02:25:58;31.73;;;16.83;;
63201;SDS011;49296;48.188;11.566;2023-03-01T02:28:31;31.05;;;15.93;;
63201;SDS011;49296;48.188;11.566;2023-03-01T02:30:59;27.75;;;15.23;;
63201;SDS011;49296;48.188;11.566;2023-03-01T02:33:44;27.65;;;15.73;;
63201;SDS011;49296;48.188;11.566;2023-03-01T02:36:14;31.23;;;15.63;;
63201;SDS011;49296;48.188;11.566;2023-03-01T02:38:43;29.57;;;15.37;;
63201;SDS011;49296;48.188;11.566;2023-03-01T02:41:10;30.58;;;15.73;;
63201;SDS011;49296;48.188;11.566;2023-03-01T02:43:40;30.80;;;15.40;;
63201;SDS011;49296;48.188;11.566;2023-03-01T02:46:08;33.20;;;16.45;;
63201;SDS011;49296;48.188;11.566;2023-03-01T02:48:41;30.35;;;15.70;;
63201;SDS011;49296;48.188;11.566;2023-03-01T02:51:11;31.00;;;15.38;;
63201;SDS011;49296;48.188;11.566;2023-03-01T02:53:53;29.25;;;16.70;;
63201;SDS011;49296;48.188;11.566;2023-03-01T02:56:25;28.50;;;15.75;;
63201;SDS011;49296;48.188;11.566;2023-03-01T02:58:53;32.65;;;17.08;;
63201;SDS011;49296;48.188;11.566;2023-03-01T03:01:25;28.73;;;16.70;;
63201;SDS011;49296;48.188;11.566;2023-03-01T03:04:01;27.77;;;15.23;;
63201;SDS011;49296;48.188;11.566;2023-03-01T03:06:29;31.05;;;16.20;;
63201;SDS011;49296;48.188;11.566;2023-03-01T03:08:56;33.45;;;16.95;;
63201;SDS011;49296;48.188;11.566;2023-03-01T03:11:23;30.90;;;15.45;;
63201;SDS011;49296;48.188;11.566;2023-03-01T03:13:49;34.50;;;16.08;;
63201;SDS011;49296;48.188;11.566;2023-03-01T03:16:18;31.73;;;16.67;;
63201;SDS011;49296;48.188;11.566;2023-03-01T03:18:45;30.45;;;16.83;;
63201;SDS011;49296;48.188;11.566;2023-03-01T03:21:12;34.22;;;16.65;;
63201;SDS011;49296;48.188;11.566;2023-03-01T03:23:39;31.08;;;17.27;;
63201;SDS011;49296;48.188;11.566;2023-03-01T03:26:06;31.63;;;16.33;;
63201;SDS011;49296;48.188;11.566;2023-03-01T03:28:33;32.75;;;16.45;;
63201;SDS011;49296;48.188;11.566;2023-03-01T03:31:05;31.33;;;17.17;;
63201;SDS011;49296;48.188;11.566;2023-03-01T03:33:33;33.05;;;16.10;;
63201;SDS011;49296;48.188;11.566;2023-03-01T03:36:00;32.30;;;17.05;;
63201;SDS011;49296;48.188;11.566;2023-03-01T03:38:27;30.70;;;16.13;;
63201;SDS011;49296;48.188;11.566;2023-03-01T03:40:59;27.80;;;15.27;;
63201;SDS011;49296;48.188;11.566;2023-03-01T03:43:29;29.27;;;15.68;;
63201;SDS011;49296;48.188;11.566;2023-03-01T03:45:56;27.52;;;15.63;;
63201;SDS011;49296;48.188;11.566;2023-03-01T03:48:23;34.13;;;15.85;;
63201;SDS011;49296;48.188;11.566;2023-03-01T03:50:52;30.58;;;15.60;;
63201;SDS011;49296;48.188;11.566;2023-03-01T03:53:21;30.88;;;16.33;;
63201;SDS011;49296;48.188;11.566;2023-03-01T03:55:49;32.60;;;16.77;;
63201;SDS011;49296;48.188;11.566;2023-03-01T03:58:17;30.60;;;15.95;;
63201;SDS011;49296;48.188;11.566;2023-03-01T04:00:45;34.08;;;17.42;;
63201;SDS011;49296;48.188;11.566;2023-03-01T04:03:13;29.83;;;16.95;;
63201;SDS011;49296;48.188;11.566;2023-03-01T04:05:41;31.02;;;16.15;;
63201;SDS011;49296;48.188;11.566;2023-03-01T04:08:10;29.63;;;15.55;;
63201;SDS011;49296;48.188;11.566;2023-03-01T04:10:37;32.08;;;16.60;;
63201;SDS011;49296;48.188;11.566;2023-03-01T04:13:05;30.15;;;15.80;;
63201;SDS011;49296;48.188;11.566;2023-03-01T04:15:36;29.58;;;15.80;;
63201;SDS011;49296;48.188;11.566;2023-03-01T04:18:03;32.40;;;15.68;;
63201;SDS011;49296;48.188;11.566;2023-03-01T04:20:31;32.88;;;15.90;;
63201;SDS011;49296;48.188;11.566;2023-03-01T04:23:00;31.50;;;16.50;;
63201;SDS011;49296;48.188;11.566;2023-03-01T04:25:36;30.70;;;15.32;;
63201;SDS011;49296;48.188;11.566;2023-03-01T04:28:04;32.10;;;16.38;;
63201;SDS011;49296;48.188;11.566;2023-03-01T04:30:31;34.42;;;16.55;;
63201;SDS011;49296;48.188;11.566;2023-03-01T04:33:01;29.27;;;14.85;;
63201;SDS011;49296;48.188;11.566;2023-03-01T04:35:28;34.17;;;16.85;;
63201;SDS011;49296;48.188;11.566;2023-03-01T04:37:55;33.10;;;15.77;;
63201;SDS011;49296;48.188;11.566;2023-03-01T04:40:21;28.92;;;16.55;;
63201;SDS011;49296;48.188;11.566;2023-03-01T04:42:50;29.83;;;15.40;;
63201;SDS011;49296;48.188;11.566;2023-03-01T04:45:16;31.85;;;15.25;;
63201;SDS011;49296;48.188;11.566;2023-03-01T04:47:43;29.58;;;15.27;;
63201;SDS011;49296;48.188;11.566;2023-03-01T04:50:12;32.75;;;16.00;;
63201;SDS011;49296;48.188;11.566;2023-03-01T04:52:45;30.33;;;15.27;;
63201;SDS011;49296;48.188;11.566;2023-03-01T04:55:13;34.35;;;16.80;;
63201;SDS011;49296;48.188;11.566;2023-03-01T04:57:40;32.60;;;16.75;;
63201;SDS011;49296;48.188;11.566;2023-03-01T05:00:10;27.08;;;14.70;;
63201;SDS011;49296;48.188;11.566;2023-03-01T05:02:54;32.88;;;15.90;;
63201;SDS011;49296;48.188;11.566;2023-03-01T05:05:23;31.08;;;15.05;;
63201;SDS011;49296;48.188;11.566;2023-03-01T05:07:53;34.08;;;16.20;;
63201;SDS011;49296;48.188;11.566;2023-03-01T05:10:20;34.78;;;16.08;;
63201;SDS011;49296;48.188;11.566;2023-03-01T05:12:47;27.80;;;16.25;;
63201;SDS011;49296;48.188;11.566;2023-03-01T05:15:15;32.17;;;15.95;;
63201;SDS011;49296;48.188;11.566;2023-03-01T05:17:42;34.13;;;16.20;;
63201;SDS011;49296;48.188;11.566;2023-03-01T05:20:09;30.05;;;16.45;;
63201;SDS011;49296;48.188;11.566;2023-03-01T05:22:36;31.17;;;15.63;;
63201;SDS011;49296;48.188;11.566;2023-03-01T05:25:03;33.17;;;16.02;;
63201;SDS011;49296;48.188;11.566;2023-03-01T05:27:30;31.48;;;17.02;;
63201;SDS011;49296;48.188;11.566;2023-03-01T05:29:57;32.03;;;16.55;;
63201;SDS011;49296;48.188;11.566;2023-03-01T05:32:25;31.08;;;15.82;;
63201;SDS011;49296;48.188;11.566;2023-03-01T05:34:51;37.05;;;15.90;;
63201;SDS011;49296;48.188;11.566;2023-03-01T05:37:20;31.67;;;16.02;;
63201;SDS011;49296;48.188;11.566;2023-03-01T05:39:46;31.25;;;15.63;;
63201;SDS011;49296;48.188;11.566;2023-03-01T05:42:15;33.10;;;16.45;;
63201;SDS011;49296;48.188;11.566;2023-03-01T05:44:42;30.48;;;15.00;;
63201;SDS011;49296;48.188;11.566;2023-03-01T05:47:08;30.15;;;16.83;;
63201;SDS011;49296;48.188;11.566;2023-03-01T05:49:36;31.80;;;16.05;;
63201;SDS011;49296;48.188;11.566;2023-03-01T05:52:03;30.58;;;15.50;;
63201;SDS011;49296;48.188;11.566;2023-03-01T05:54:30;30.17;;;15.32;;
63201;SDS011;49296;48.188;11.566;2023-03-01T05:56:57;36.47;;;16.80;;
63201;SDS011;49296;48.188;11.566;2023-03-01T05:59:23;32.67;;;16.33;;
63201;SDS011;49296;48.188;11.566;2023-03-01T06:01:50;29.25;;;15.25;;
63201;SDS011;49296;48.188;11.566;2023-03-01T06:04:16;33.22;;;16.75;;
63201;SDS011;49296;48.188;11.566;2023-03-01T06:06:44;31.33;;;15.68;;
63201;SDS011;49296;48.188;11.566;2023-03-01T06:09:11;33.55;;;16.77;;
63201;SDS011;49296;48.188;11.566;2023-03-01T06:11:38;33.05;;;16.77;;
63201;SDS011;49296;48.188;11.566;2023-03-01T06:14:05;31.48;;;16.55;;
63201;SDS011;49296;48.188;11.566;2023-03-01T06:16:32;31.23;;;14.90;;
63201;SDS011;49296;48.188;11.566;2023-03-01T06:18:59;31.65;;;16.38;;
63201;SDS011;49296;48.188;11.566;2023-03-01T06:21:26;29.83;;;16.30;;
63201;SDS011;49296;48.188;11.566;2023-03-01T06:23:54;33.72;;;17.33;;
63201;SDS011;49296;48.188;11.566;2023-03-01T06:26:20;34.08;;;16.88;;
63201;SDS011;49296;48.188;11.566;2023-03-01T06:28:47;31.23;;;16.65;;
63201;SDS011;49296;48.188;11.566;2023-03-01T06:31:14;35.38;;;15.77;;
63201;SDS011;49296;48.188;11.566;2023-03-01T06:33:41;37.65;;;17.75;;
63201;SDS011;49296;48.188;11.566;2023-03-01T06:36:09;34.78;;;16.77;;
63201;SDS011;49296;48.188;11.566;2023-03-01T06:38:36;33.78;;;17.42;;
63201;SDS011;49296;48.188;11.566;2023-03-01T06:41:04;31.98;;;16.27;;
63201;SDS011;49296;48.188;11.566;2023-03-01T06:43:31;33.70;;;15.35;;
63201;SDS011;49296;48.188;11.566;2023-03-01T06:45:58;35.60;;;17.58;;
63201;SDS011;49296;48.188;11.566;2023-03-01T06:48:25;36.60;;;17.33;;
63201;SDS011;49296;48.188;11.566;2023-03-01T06:50:52;33.58;;;14.32;;
63201;SDS011;49296;48.188;11.566;2023-03-01T06:53:18;33.67;;;16.80;;
63201;SDS011;49296;48.188;11.566;2023-03-01T06:55:45;34.15;;;15.55;;
63201;SDS011;49296;48.188;11.566;2023-03-01T06:58:13;33.13;;;16.85;;
63201;SDS011;49296;48.188;11.566;2023-03-01T07:00:40;29.75;;;15.57;;
63201;SDS011;49296;48.188;11.566;2023-03-01T07:03:08;35.38;;;16.77;;
63201;SDS011;49296;48.188;11.566;2023-03-01T07:05:34;34.83;;;17.30;;
63201;SDS011;49296;48.188;11.566;2023-03-01T07:08:01;33.28;;;16.25;;
63201;SDS011;49296;48.188;11.566;2023-03-01T07:10:27;32.40;;;17.10;;
63201;SDS011;49296;48.188;11.566;2023-03-01T07:12:55;37.88;;;16.83;;
63201;SDS011;49296;48.188;11.566;2023-03-01T07:15:23;33.35;;;16.50;;
63201;SDS011;49296;48.188;11.566;2023-03-01T07:17:51;32.28;;;16.67;;
63201;SDS011;49296;48.188;11.566;2023-03-01T07:20:18;32.65;;;16.10;;
63201;SDS011;49296;48.188;11.566;2023-03-01T07:22:49;32.67;;;17.42;;
63201;SDS011;49296;48.188;11.566;2023-03-01T07:25:16;30.30;;;16.05;;
63201;SDS011;49296;48.188;11.566;2023-03-01T07:27:42;34.58;;;16.67;;
63201;SDS011;49296;48.188;11.566;2023-03-01T07:30:10;33.33;;;17.77;;
63201;SDS011;49296;48.188;11.566;2023-03-01T07:32:38;30.83;;;16.50;;
63201;SDS011;49296;48.188;11.566;2023-03-01T07:35:05;28.52;;;16.20;;
63201;SDS011;49296;48.188;11.566;2023-03-01T07:37:32;33.13;;;16.00;;
63201;SDS011;49296;48.188;11.566;2023-03-01T07:39:59;35.15;;;17.25;;
63201;SDS011;49296;48.188;11.566;2023-03-01T07:42:26;36.38;;;17.42;;
63201;SDS011;49296;48.188;11.566;2023-03-01T07:44:52;35.35;;;17.17;;
63201;SDS011;49296;48.188;11.566;2023-03-01T07:47:19;33.25;;;16.70;;
63201;SDS011;49296;48.188;11.566;2023-03-01T07:49:47;34.83;;;17.63;;
63201;SDS011;49296;48.188;11.566;2023-03-01T07:52:14;36.85;;;16.85;;
63201;SDS011;49296;48.188;11.566;2023-03-01T07:54:42;30.20;;;14.77;;
63201;SDS011;49296;48.188;11.566;2023-03-01T07:57:09;36.45;;;17.63;;
63201;SDS011;49296;48.188;11.566;2023-03-01T07:59:36;35.60;;;16.75;;
63201;SDS011;49296;48.188;11.566;2023-03-01T08:02:03;35.15;;;15.63;;
63201;SDS011;49296;48.188;11.566;2023-03-01T08:04:29;38.38;;;16.42;;
63201;SDS011;49296;48.188;11.566;2023-03-01T08:06:57;34.67;;;17.02;;
63201;SDS011;49296;48.188;11.566;2023-03-01T08:09:24;35.90;;;16.50;;
63201;SDS011;49296;48.188;11.566;2023-03-01T08:11:51;33.85;;;16.38;;
63201;SDS011;49296;48.188;11.566;2023-03-01T08:14:19;37.70;;;16.70;;
63201;SDS011;49296;48.188;11.566;2023-03-01T08:16:48;36.38;;;17.13;;
63201;SDS011;49296;48.188;11.566;2023-03-01T08:19:15;34.72;;;17.73;;
63201;SDS011;49296;48.188;11.566;2023-03-01T08:21:42;34.95;;;17.73;;
63201;SDS011;49296;48.188;11.566;2023-03-01T08:24:10;34.83;;;17.60;;
63201;SDS011;49296;48.188;11.566;2023-03-01T08:26:36;35.90;;;16.75;;
63201;SDS011;49296;48.188;11.566;2023-03-01T08:29:03;33.95;;;16.83;;
63201;SDS011;49296;48.188;11.566;2023-03-01T08:31:30;34.97;;;17.05;;
63201;SDS011;49296;48.188;11.566;2023-03-01T08:34:01;35.95;;;16.90;;
63201;SDS011;49296;48.188;11.566;2023-03-01T08:36:30;37.35;;;17.27;;
63201;SDS011;49296;48.188;11.566;2023-03-01T08:38:58;32.28;;;17.33;;
63201;SDS011;49296;48.188;11.566;2023-03-01T08:41:27;35.22;;;16.60;;
63201;SDS011;49296;48.188;11.566;2023-03-01T08:43:54;36.72;;;17.92;;
63201;SDS011;49296;48.188;11.566;2023-03-01T08:46:23;37.22;;;18.02;;
63201;SDS011;49296;48.188;11.566;2023-03-01T08:48:50;36.90;;;17.45;;
63201;SDS011;49296;48.188;11.566;2023-03-01T08:51:17;36.15;;;17.02;;
63201;SDS011;49296;48.188;11.566;2023-03-01T08:53:45;34.72;;;17.33;;
63201;SDS011;49296;48.188;11.566;2023-03-01T08:56:12;36.00;;;17.63;;
63201;SDS011;49296;48.188;11.566;2023-03-01T08:58:42;39.75;;;17.98;;
63201;SDS011;49296;48.188;11.566;2023-03-01T09:01:12;31.55;;;16.30;;
63201;SDS011;49296;48.188;11.566;2023-03-01T09:03:40;32.97;;;17.10;;
63201;SDS011;49296;48.188;11.566;2023-03-01T09:06:07;39.35;;;18.30;;
63201;SDS011;49296;48.188;11.566;2023-03-01T09:08:34;36.20;;;16.80;;
63201;SDS011;49296;48.188;11.566;2023-03-01T09:11:01;36.92;;;17.80;;
63201;SDS011;49296;48.188;11.566;2023-03-01T09:13:28;37.47;;;18.10;;
63201;SDS011;49296;48.188;11.566;2023-03-01T09:15:58;36.08;;;18.10;;
63201;SDS011;49296;48.188;11.566;2023-03-01T09:18:25;41.63;;;17.98;;
63201;SDS011;49296;48.188;11.566;2023-03-01T09:20:52;37.50;;;16.40;;
63201;SDS011;49296;48.188;11.566;2023-03-01T09:23:20;36.85;;;17.80;;
63201;SDS011;49296;48.188;11.566;2023-03-01T09:25:46;38.03;;;17.90;;
63201;SDS011;49296;48.188;11.566;2023-03-01T09:28:13;40.08;;;19.05;;
63201;SDS011;49296;48.188;11.566;2023-03-01T09:30:40;38.88;;;17.08;;
63201;SDS011;49296;48.188;11.566;2023-03-01T09:33:08;39.28;;;18.83;;
63201;SDS011;49296;48.188;11.566;2023-03-01T09:35:39;36.67;;;17.67;;
63201;SDS011;49296;48.188;11.566;2023-03-01T09:38:11;34.35;;;16.58;;
63201;SDS011;49296;48.188;11.566;2023-03-01T09:40:41;35.05;;;17.00;;
63201;SDS011;49296;48.188;11.566;2023-03-01T09:43:13;33.65;;;15.95;;
63201;SDS011;49296;48.188;11.566;2023-03-01T09:45:46;37.05;;;15.85;;
63201;SDS011;49296;48.188;11.566;2023-03-01T09:48:19;35.50;;;16.63;;
63201;SDS011;49296;48.188;11.566;2023-03-01T09:50:48;34.85;;;15.70;;
63201;SDS011;49296;48.188;11.566;2023-03-01T09:53:16;32.28;;;16.25;;
63201;SDS011;49296;48.188;11.566;2023-03-01T09:55:45;32.45;;;17.13;;
63201;SDS011;49296;48.188;11.566;2023-03-01T09:58:24;35.27;;;16.43;;
63201;SDS011;49296;48.188;11.566;2023-03-01T10:01:02;34.55;;;17.13;;
63201;SDS011;49296;48.188;11.566;2023-03-01T10:03:43;35.78;;;16.63;;
63201;SDS011;49296;48.188;11.566;2023-03-01T10:06:15;33.30;;;17.00;;
63201;SDS011;49296;48.188;11.566;2023-03-01T10:08:50;33.13;;;17.23;;
63201;SDS011;49296;48.188;11.566;2023-03-01T10:11:21;39.85;;;17.23;;
63201;SDS011;49296;48.188;11.566;2023-03-01T10:13:53;34.65;;;16.70;;
63201;SDS011;49296;48.188;11.566;2023-03-01T10:16:26;39.65;;;16.88;;
63201;SDS011;49296;48.188;11.566;2023-03-01T10:19:00;36.63;;;17.60;;
63201;SDS011;49296;48.188;11.566;2023-03-01T10:21:29;39.80;;;17.52;;
63201;SDS011;49296;48.188;11.566;2023-03-01T10:23:58;36.83;;;18.30;;
63201;SDS011;49296;48.188;11.566;2023-03-01T10:26:47;35.63;;;18.65;;
63201;SDS011;49296;48.188;11.566;2023-03-01T10:29:19;39.95;;;19.13;;
63201;SDS011;49296;48.188;11.566;2023-03-01T10:31:52;37.88;;;18.38;;
63201;SDS011;49296;48.188;11.566;2023-03-01T10:34:22;37.10;;;18.55;;
63201;SDS011;49296;48.188;11.566;2023-03-01T10:36:55;37.72;;;19.27;;
63201;SDS011;49296;48.188;11.566;2023-03-01T10:39:24;37.07;;;18.77;;
63201;SDS011;49296;48.188;11.566;2023-03-01T10:41:53;42.13;;;19.75;;
63201;SDS011;49296;48.188;11.566;2023-03-01T10:44:36;34.35;;;18.98;;
63201;SDS011;49296;48.188;11.566;2023-03-01T10:47:05;36.47;;;18.77;;
63201;SDS011;49296;48.188;11.566;2023-03-01T10:49:39;38.85;;;18.52;;
63201;SDS011;49296;48.188;11.566;2023-03-01T10:52:20;43.55;;;20.08;;
63201;SDS011;49296;48.188;11.566;2023-03-01T10:54:51;39.35;;;20.00;;
63201;SDS011;49296;48.188;11.566;2023-03-01T10:57:30;39.83;;;20.17;;
63201;SDS011;49296;48.188;11.566;2023-03-01T11:00:15;39.03;;;18.92;;
63201;SDS011;49296;48.188;11.566;2023-03-01T11:02:46;40.53;;;19.70;;
63201;SDS011;49296;48.188;11.566;2023-03-01T11:05:20;39.90;;;19.80;;
63201;SDS011;49296;48.188;11.566;2023-03-01T11:07:50;39.20;;;19.23;;
63201;SDS011;49296;48.188;11.566;2023-03-01T11:10:27;41.88;;;19.48;;
63201;SDS011;49296;48.188;11.566;2023-03-01T11:13:05;40.45;;;19.92;;
63201;SDS011;49296;48.188;11.566;2023-03-01T11:15:33;36.30;;;19.45;;
63201;SDS011;49296;48.188;11.566;2023-03-01T11:18:01;38.40;;;19.70;;
63201;SDS011;49296;48.188;11.566;2023-03-01T11:20:30;38.33;;;19.67;;
63201;SDS011;49296;48.188;11.566;2023-03-01T11:22:59;38.17;;;19.35;;
63201;SDS011;49296;48.188;11.566;2023-03-01T11:25:33;42.97;;;20.40;;
63201;SDS011;49296;48.188;11.566;2023-03-01T11:28:03;40.17;;;19.98;;
63201;SDS011;49296;48.188;11.566;2023-03-01T11:30:32;40.05;;;19.20;;
63201;SDS011;49296;48.188;11.566;2023-03-01T11:33:07;36.50;;;17.67;;
63201;SDS011;49296;48.188;11.566;2023-03-01T11:35:42;39.20;;;18.77;;
63201;SDS011;49296;48.188;11.566;2023-03-01T11:38:19;39.50;;;19.52;;
63201;SDS011;49296;48.188;11.566;2023-03-01T11:40:50;38.78;;;19.15;;
63201;SDS011;49296;48.188;11.566;2023-03-01T11:43:26;41.00;;;20.75;;
63201;SDS011;49296;48.188;11.566;2023-03-01T11:49:11;40.00;;;20.30;;
63201;SDS011;49296;48.188;11.566;2023-03-01T11:51:53;43.15;;;19.60;;
63201;SDS011;49296;48.188;11.566;2023-03-01T11:54:30;39.58;;;19.20;;
63201;SDS011;49296;48.188;11.566;2023-03-01T11:57:10;42.50;;;20.55;;
63201;SDS011;49296;48.188;11.566;2023-03-01T11:59:59;38.08;;;19.88;;
63201;SDS011;49296;48.188;11.566;2023-03-01T12:02:46;35.45;;;19.70;;
63201;SDS011;49296;48.188;11.566;2023-03-01T12:05:38;40.50;;;19.80;;
63201;SDS011;49296;48.188;11.566;2023-03-01T12:08:31;38.03;;;19.33;;
63201;SDS011;49296;48.188;11.566;2023-03-01T12:11:03;43.80;;;19.80;;
63201;SDS011;49296;48.188;11.566;2023-03-01T12:13:44;46.25;;;21.65;;
63201;SDS011;49296;48.188;11.566;2023-03-01T12:16:25;37.05;;;18.17;;
63201;SDS011;49296;48.188;11.566;2023-03-01T12:19:13;40.55;;;19.88;;
63201;SDS011;49296;48.188;11.566;2023-03-01T12:22:02;37.38;;;19.83;;
63201;SDS011;49296;48.188;11.566;2023-03-01T12:24:47;36.72;;;20.10;;
63201;SDS011;49296;48.188;11.566;2023-03-01T12:27:37;40.08;;;19.83;;
63201;SDS011;49296;48.188;11.566;2023-03-01T12:30:34;41.25;;;21.02;;
63201;SDS011;49296;48.188;11.566;2023-03-01T12:33:13;40.22;;;20.38;;
63201;SDS011;49296;48.188;11.566;2023-03-01T12:38:45;36.50;;;18.75;;
63201;SDS011;49296;48.188;11.566;2023-03-01T12:41:24;43.90;;;20.92;;
63201;SDS011;49296;48.188;11.566;2023-03-01T12:44:01;38.13;;;19.95;;
63201;SDS011;49296;48.188;11.566;2023-03-01T12:46:38;40.55;;;20.65;;
63201;SDS011;49296;48.188;11.566;2023-03-01T12:49:19;40.92;;;20.13;;
63201;SDS011;49296;48.188;11.566;2023-03-01T12:51:53;42.78;;;20.25;;
63201;SDS011;49296;48.188;11.566;2023-03-01T12:54:27;37.30;;;19.27;;
63201;SDS011;49296;48.188;11.566;2023-03-01T12:56:59;40.05;;;19.42;;
63201;SDS011;49296;48.188;11.566;2023-03-01T12:59:34;37.60;;;19.30;;
63201;SDS011;49296;48.188;11.566;2023-03-01T13:02:04;35.72;;;19.05;;
63201;SDS011;49296;48.188;11.566;2023-03-01T13:04:45;38.30;;;19.77;;
63201;SDS011;49296;48.188;11.566;2023-03-01T13:07:35;39.15;;;20.73;;
63201;SDS011;49296;48.188;11.566;2023-03-01T13:10:19;37.35;;;20.48;;
63201;SDS011;49296;48.188;11.566;2023-03-01T13:13:08;33.42;;;18.55;;
63201;SDS011;49296;48.188;11.566;2023-03-01T13:15:39;36.58;;;19.58;;
63201;SDS011;49296;48.188;11.566;2023-03-01T13:20:55;35.78;;;19.65;;
63201;SDS011;49296;48.188;11.566;2023-03-01T13:23:27;36.42;;;20.35;;
63201;SDS011;49296;48.188;11.566;2023-03-01T13:26:03;37.83;;;20.90;;
63201;SDS011;49296;48.188;11.566;2023-03-01T13:28:50;39.90;;;19.33;;
63201;SDS011;49296;48.188;11.566;2023-03-01T13:37:25;37.75;;;19.35;;
63201;SDS011;49296;48.188;11.566;2023-03-01T13:39:55;36.60;;;19.48;;
63201;SDS011;49296;48.188;11.566;2023-03-01T13:45:31;36.83;;;20.83;;
63201;SDS011;49296;48.188;11.566;2023-03-01T13:48:04;37.00;;;20.90;;
63201;SDS011;49296;48.188;11.566;2023-03-01T13:50:37;37.10;;;19.30;;
63201;SDS011;49296;48.188;11.566;2023-03-01T13:53:12;36.67;;;19.63;;
63201;SDS011;49296;48.188;11.566;2023-03-01T13:55:44;35.65;;;19.02;;
63201;SDS011;49296;48.188;11.566;2023-03-01T13:58:19;37.38;;;18.33;;
63201;SDS011;49296;48.188;11.566;2023-03-01T14:00:54;34.53;;;19.33;;
63201;SDS011;49296;48.188;11.566;2023-03-01T14:03:22;35.20;;;19.60;;
63201;SDS011;49296;48.188;11.566;2023-03-01T14:06:00;37.13;;;18.80;;
63201;SDS011;49296;48.188;11.566;2023-03-01T14:08:31;38.97;;;20.33;;
63201;SDS011;49296;48.188;11.566;2023-03-01T14:11:08;37.72;;;19.95;;
63201;SDS011;49296;48.188;11.566;2023-03-01T14:13:58;38.03;;;19.15;;
63201;SDS011;49296;48.188;11.566;2023-03-01T14:16:39;34.72;;;17.52;;
63201;SDS011;49296;48.188;11.566;2023-03-01T14:19:15;36.17;;;18.33;;
63201;SDS011;49296;48.188;11.566;2023-03-01T14:21:45;34.80;;;18.98;;
63201;SDS011;49296;48.188;11.566;2023-03-01T14:24:20;39.60;;;19.95;;
63201;SDS011;49296;48.188;11.566;2023-03-01T14:26:48;39.22;;;19.58;;
63201;SDS011;49296;48.188;11.566;2023-03-01T14:29:35;37.55;;;19.00;;
63201;SDS011;49296;48.188;11.566;2023-03-01T14:32:12;43.83;;;20.00;;
63201;SDS011;49296;48.188;11.566;2023-03-01T14:37:16;35.35;;;17.40;;
63201;SDS011;49296;48.188;11.566;2023-03-01T14:39:45;35.15;;;18.08;;
63201;SDS011;49296;48.188;11.566;2023-03-01T14:42:12;33.90;;;18.25;;
63201;SDS011;49296;48.188;11.566;2023-03-01T14:44:40;37.05;;;18.52;;
63201;SDS011;49296;48.188;11.566;2023-03-01T14:47:11;31.83;;;16.85;;
63201;SDS011;49296;48.188;11.566;2023-03-01T14:49:40;37.40;;;16.98;;